createdAt,value
2019-03-27T00:01:10.855Z,78.15
2019-03-27T00:03:39.417Z,78.02
2019-03-27T00:06:07.961Z,78.43
2019-03-27T00:08:36.440Z,78.26
2019-03-27T00:11:04.996Z,78.22
2019-03-27T00:13:33.488Z,78.30
2019-03-27T00:16:01.992Z,78.25
2019-03-27T00:18:30.560Z,78.33
2019-03-27T00:20:59.031Z,78.43
2019-03-27T00:23:27.608Z,78.05
2019-03-27T00:25:56.062Z,77.97
2019-03-27T00:28:24.601Z,77.91
2019-03-27T00:30:53.086Z,78.01
2019-03-27T00:33:21.624Z,78.05
2019-03-27T00:35:50.131Z,77.91
2019-03-27T00:38:18.578Z,77.99
2019-03-27T00:40:47.074Z,78.12
2019-03-27T00:43:15.552Z,77.76
2019-03-27T00:45:44.006Z,78.07
2019-03-27T00:48:12.535Z,78.22
2019-03-27T00:50:40.997Z,78.26
2019-03-27T00:53:09.510Z,78.20
2019-03-27T00:55:37.997Z,78.17
2019-03-27T00:58:06.638Z,78.03
2019-03-27T01:00:47.060Z,78.18
2019-03-27T01:03:15.635Z,78.36
2019-03-27T01:05:44.142Z,78.49
2019-03-27T01:08:12.626Z,78.69
2019-03-27T01:10:41.117Z,78.65
2019-03-27T01:13:09.698Z,78.77
2019-03-27T01:15:40.443Z,78.89
2019-03-27T01:18:08.984Z,78.87
2019-03-27T01:20:37.498Z,78.90
2019-03-27T01:23:05.970Z,79.03
2019-03-27T01:25:34.444Z,79.00
2019-03-27T01:28:04.613Z,79.03
2019-03-27T01:30:33.088Z,79.10
2019-03-27T01:33:03.112Z,79.24
2019-03-27T01:35:31.585Z,79.03
2019-03-27T01:38:00.056Z,79.24
2019-03-27T01:40:28.589Z,79.16
2019-03-27T01:42:57.084Z,79.52
2019-03-27T01:45:25.562Z,79.93
2019-03-27T01:47:54.040Z,79.89
2019-03-27T01:50:22.633Z,79.72
2019-03-27T01:52:53.148Z,79.61
2019-03-27T01:55:21.504Z,79.74
2019-03-27T01:57:50.045Z,79.97
2019-03-27T02:00:18.683Z,80.01
2019-03-27T02:02:49.242Z,80.01
2019-03-27T02:05:17.966Z,80.05
2019-03-27T02:07:46.752Z,79.89
2019-03-27T02:10:17.451Z,79.78
2019-03-27T02:12:45.945Z,79.88
2019-03-27T02:15:14.687Z,79.74
2019-03-27T02:17:45.609Z,79.48
2019-03-27T02:20:14.294Z,79.91
2019-03-27T02:22:44.474Z,80.16
2019-03-27T02:25:14.869Z,80.23
2019-03-27T02:27:43.415Z,80.42
2019-03-27T02:30:12.346Z,80.47
2019-03-27T02:32:40.874Z,80.31
2019-03-27T02:35:09.468Z,80.42
2019-03-27T02:37:37.968Z,80.47
2019-03-27T02:40:12.613Z,80.58
2019-03-27T02:42:43.025Z,80.53
2019-03-27T02:45:11.890Z,80.95
2019-03-27T02:47:40.417Z,80.90
2019-03-27T02:50:10.630Z,80.51
2019-03-27T02:52:41.931Z,80.63
2019-03-27T02:55:10.792Z,80.68
2019-03-27T02:57:39.258Z,80.79
2019-03-27T03:00:12.485Z,80.68
2019-03-27T03:02:41.108Z,80.29
2019-03-27T03:05:10.724Z,80.39
2019-03-27T03:07:39.186Z,80.74
2019-03-27T03:10:10.768Z,80.60
2019-03-27T03:12:39.220Z,80.49
2019-03-27T03:15:10.553Z,80.57
2019-03-27T03:17:39.025Z,80.86
2019-03-27T03:20:08.776Z,80.48
2019-03-27T03:22:40.610Z,80.68
2019-03-27T03:25:09.751Z,80.69
2019-03-27T03:27:38.277Z,80.61
2019-03-27T03:30:13.066Z,80.39
2019-03-27T03:32:41.586Z,80.68
2019-03-27T03:35:10.826Z,80.42
2019-03-27T03:37:39.337Z,80.66
2019-03-27T03:40:11.100Z,80.52
2019-03-27T03:42:40.567Z,80.68
2019-03-27T03:45:09.405Z,80.41
2019-03-27T03:47:37.876Z,80.83
2019-03-27T03:50:07.572Z,80.80
2019-03-27T03:52:36.153Z,81.43
2019-03-27T03:55:06.123Z,81.56
2019-03-27T03:57:37.220Z,81.17
2019-03-27T04:00:07.663Z,80.96
2019-03-27T04:02:37.427Z,80.68
2019-03-27T04:05:07.693Z,80.67
2019-03-27T04:07:36.144Z,80.62
2019-03-27T04:10:06.801Z,80.70
2019-03-27T04:12:35.738Z,80.49
2019-03-27T04:15:05.702Z,80.73
2019-03-27T04:17:34.198Z,80.55
2019-03-27T04:20:02.840Z,80.63
2019-03-27T04:22:31.333Z,80.85
2019-03-27T04:24:59.821Z,80.60
2019-03-27T04:27:28.292Z,80.68
2019-03-27T04:29:56.755Z,80.90
2019-03-27T04:32:25.242Z,80.68
2019-03-27T04:34:53.706Z,80.96
2019-03-27T04:37:22.183Z,80.85
2019-03-27T04:39:50.760Z,80.70
2019-03-27T04:42:19.222Z,80.88
2019-03-27T04:44:47.721Z,80.56
2019-03-27T04:47:31.139Z,80.74
2019-03-27T04:49:46.406Z,80.71
2019-03-27T04:52:14.878Z,81.09
2019-03-27T04:54:43.358Z,80.82
2019-03-27T04:57:11.821Z,80.79
2019-03-27T04:59:40.284Z,80.70
2019-03-27T05:02:08.764Z,80.43
2019-03-27T05:04:37.598Z,81.04
2019-03-27T05:07:06.096Z,80.84
2019-03-27T05:09:34.572Z,80.66
2019-03-27T05:12:03.150Z,80.67
2019-03-27T05:14:33.335Z,80.64
2019-03-27T05:17:01.789Z,80.33
2019-03-27T05:19:30.270Z,80.07
2019-03-27T05:21:58.726Z,80.58
2019-03-27T05:24:27.210Z,80.71
2019-03-27T05:26:55.661Z,80.56
2019-03-27T05:29:24.150Z,80.44
2019-03-27T05:31:52.625Z,80.37
2019-03-27T05:34:24.234Z,80.40
2019-03-27T05:36:52.737Z,80.27
2019-03-27T05:39:21.765Z,80.23
2019-03-27T05:41:52.299Z,80.20
2019-03-27T05:44:20.832Z,80.08
2019-03-27T05:46:51.400Z,80.09
2019-03-27T05:49:19.941Z,80.15
2019-03-27T05:51:48.436Z,80.17
2019-03-27T05:54:16.903Z,80.22
2019-03-27T05:56:45.487Z,80.08
2019-03-27T05:59:14.021Z,79.89
2019-03-27T06:01:43.044Z,79.89
2019-03-27T06:04:11.538Z,79.88
2019-03-27T06:06:40.043Z,79.73
2019-03-27T06:09:08.515Z,80.02
2019-03-27T06:11:37.009Z,79.85
2019-03-27T06:14:08.471Z,79.97
2019-03-27T06:16:36.977Z,79.85
2019-03-27T06:19:05.451Z,80.01
2019-03-27T06:21:33.950Z,79.75
2019-03-27T06:24:02.486Z,79.71
2019-03-27T06:26:33.788Z,79.44
2019-03-27T06:29:04.437Z,79.35
2019-03-27T06:31:32.981Z,79.20
2019-03-27T06:34:04.730Z,78.98
2019-03-27T06:36:33.205Z,79.21
2019-03-27T06:39:01.706Z,79.08
2019-03-27T06:41:30.177Z,79.08
2019-03-27T06:43:58.658Z,78.96
2019-03-27T06:46:29.121Z,78.95
2019-03-27T06:48:57.689Z,78.93
2019-03-27T06:51:40.416Z,78.67
2019-03-27T06:54:06.707Z,78.43
2019-03-27T06:56:35.173Z,78.38
2019-03-27T06:59:04.074Z,78.36
2019-03-27T07:01:33.756Z,78.14
2019-03-27T07:04:10.372Z,78.31
2019-03-27T07:06:32.395Z,78.25
2019-03-27T07:09:01.073Z,77.92
2019-03-27T07:11:29.531Z,77.80
2019-03-27T07:13:58.021Z,77.55
2019-03-27T07:16:26.510Z,77.50
2019-03-27T07:18:54.958Z,77.37
2019-03-27T07:21:23.432Z,77.75
2019-03-27T07:23:51.959Z,77.54
2019-03-27T07:26:20.446Z,77.49
2019-03-27T07:28:50.632Z,77.72
2019-03-27T07:31:19.138Z,77.70
2019-03-27T07:33:47.619Z,77.55
2019-03-27T07:36:16.097Z,77.40
2019-03-27T07:38:44.647Z,77.22
2019-03-27T07:41:13.120Z,76.94
2019-03-27T07:43:42.038Z,77.17
2019-03-27T07:46:10.488Z,76.59
2019-03-27T07:48:38.958Z,76.91
2019-03-27T07:51:07.510Z,76.53
2019-03-27T07:53:36.050Z,76.13
2019-03-27T07:56:04.786Z,76.35
2019-03-27T07:58:33.265Z,76.41
2019-03-27T08:01:01.752Z,75.92
2019-03-27T08:03:30.258Z,76.17
2019-03-27T08:05:58.807Z,75.60
2019-03-27T08:08:28.940Z,75.70
2019-03-27T08:11:00.126Z,75.82
2019-03-27T08:13:28.602Z,74.83
2019-03-27T08:15:58.590Z,75.12
2019-03-27T08:18:27.088Z,75.06
2019-03-27T08:20:55.618Z,74.90
2019-03-27T08:23:24.170Z,74.94
2019-03-27T08:25:52.702Z,74.33
2019-03-27T08:28:21.192Z,74.40
2019-03-27T08:30:49.662Z,74.60
2019-03-27T08:33:18.245Z,74.25
2019-03-27T08:35:46.737Z,74.73
2019-03-27T08:38:15.272Z,74.73
2019-03-27T08:40:43.824Z,74.42
2019-03-27T08:43:21.084Z,73.93
2019-03-27T08:45:42.502Z,74.23
2019-03-27T08:48:10.952Z,74.21
2019-03-27T08:50:39.870Z,73.24
2019-03-27T08:53:08.354Z,73.35
2019-03-27T08:55:36.832Z,73.18
2019-03-27T08:58:05.820Z,72.57
2019-03-27T09:00:54.290Z,72.20
2019-03-27T09:03:24.159Z,73.00
2019-03-27T09:05:52.732Z,72.28
2019-03-27T09:08:22.739Z,72.19
2019-03-27T09:10:51.307Z,72.45
2019-03-27T09:13:19.937Z,72.54
2019-03-27T09:15:48.490Z,72.68
2019-03-27T09:18:17.165Z,72.38
2019-03-27T09:20:45.736Z,71.90
2019-03-27T09:23:14.324Z,72.12
2019-03-27T09:25:42.798Z,72.71
2019-03-27T09:28:11.269Z,71.72
2019-03-27T09:30:42.815Z,71.58
2019-03-27T09:33:12.924Z,71.51
2019-03-27T09:35:42.926Z,71.50
2019-03-27T09:38:11.457Z,71.00
2019-03-27T09:40:44.077Z,70.78
2019-03-27T09:43:12.547Z,70.13
2019-03-27T09:45:41.404Z,70.44
2019-03-27T09:48:10.021Z,70.23
2019-03-27T09:50:38.507Z,70.21
2019-03-27T09:53:07.032Z,69.97
2019-03-27T09:55:35.528Z,69.03
2019-03-27T09:58:04.146Z,69.15
2019-03-27T10:00:47.365Z,69.00
2019-03-27T10:03:15.834Z,69.23
2019-03-27T10:05:46.917Z,68.81
2019-03-27T10:08:15.376Z,68.84
2019-03-27T10:10:43.863Z,69.31
2019-03-27T10:13:13.523Z,69.03
2019-03-27T10:15:44.837Z,69.48
2019-03-27T10:18:13.291Z,69.18
2019-03-27T10:20:41.764Z,69.36
2019-03-27T10:23:10.247Z,69.71
2019-03-27T10:25:39.305Z,69.43
2019-03-27T10:28:08.163Z,68.88
2019-03-27T10:30:36.781Z,68.72
2019-03-27T10:33:05.261Z,68.46
2019-03-27T10:35:33.800Z,68.53
2019-03-27T10:38:02.253Z,66.86
2019-03-27T10:40:30.752Z,66.46
2019-03-27T10:42:59.243Z,67.15
2019-03-27T10:45:29.591Z,67.43
2019-03-27T10:47:58.061Z,67.02
2019-03-27T10:50:26.599Z,66.30
2019-03-27T10:52:55.058Z,65.07
2019-03-27T10:55:23.686Z,66.44
2019-03-27T10:57:52.223Z,66.30
2019-03-27T11:00:20.983Z,66.57
2019-03-27T11:02:50.967Z,66.44
2019-03-27T11:05:19.734Z,66.64
2019-03-27T11:07:48.481Z,66.89
2019-03-27T11:10:17.223Z,67.21
2019-03-27T11:12:45.789Z,67.75
2019-03-27T11:15:15.340Z,67.98
2019-03-27T11:17:43.991Z,68.03
2019-03-27T11:20:13.061Z,68.32
2019-03-27T11:22:41.606Z,69.08
2019-03-27T11:25:10.506Z,69.04
2019-03-27T11:27:39.070Z,69.48
2019-03-27T11:30:08.517Z,69.95
2019-03-27T11:32:37.340Z,70.68
2019-03-27T11:35:06.532Z,70.94
2019-03-27T11:37:39.031Z,70.81
2019-03-27T11:40:07.770Z,70.25
2019-03-27T11:42:36.313Z,70.59
2019-03-27T11:45:09.598Z,71.05
2019-03-27T11:47:40.849Z,70.71
2019-03-27T11:50:11.081Z,70.51
2019-03-27T11:52:40.412Z,70.64
2019-03-27T11:55:09.225Z,70.46
2019-03-27T11:57:37.838Z,70.77
2019-03-27T12:00:13.380Z,71.32
2019-03-27T12:02:42.064Z,71.92
2019-03-27T12:05:11.192Z,73.01
2019-03-27T12:07:39.792Z,72.38
2019-03-27T12:10:09.126Z,72.55
2019-03-27T12:12:37.614Z,73.15
2019-03-27T12:15:09.481Z,73.93
2019-03-27T12:17:38.045Z,75.14
2019-03-27T12:20:07.504Z,75.62
2019-03-27T12:22:36.060Z,76.26
2019-03-27T12:25:05.831Z,76.02
2019-03-27T12:30:57.993Z,77.33
2019-03-27T12:33:26.618Z,78.39
2019-03-27T12:36:00.983Z,78.00
2019-03-27T12:38:30.931Z,78.37
2019-03-27T12:40:59.429Z,78.46
2019-03-27T12:43:27.964Z,79.14
2019-03-27T12:45:56.479Z,78.91
2019-03-27T12:48:25.058Z,79.08
2019-03-27T12:50:53.513Z,78.70
2019-03-27T12:53:22.771Z,79.28
2019-03-27T12:55:54.558Z,79.00
2019-03-27T12:58:24.955Z,79.39
2019-03-27T13:00:53.495Z,79.92
2019-03-27T13:03:22.129Z,79.50
2019-03-27T13:05:50.625Z,80.00
2019-03-27T13:08:21.236Z,80.50
2019-03-27T13:10:49.408Z,80.97
2019-03-27T13:13:20.990Z,81.42
2019-03-27T13:15:49.842Z,81.97
2019-03-27T13:18:19.579Z,82.58
2019-03-27T13:20:57.584Z,82.43
2019-03-27T13:23:26.156Z,82.49
2019-03-27T13:26:05.247Z,83.05
2019-03-27T13:28:48.290Z,82.97
2019-03-27T13:31:08.798Z,83.11
2019-03-27T13:33:38.267Z,84.29
2019-03-27T13:36:07.813Z,83.10
2019-03-27T13:38:37.849Z,83.50
2019-03-27T13:41:06.397Z,83.30
2019-03-27T13:43:34.859Z,83.57
2019-03-27T13:46:03.439Z,83.81
2019-03-27T13:48:34.317Z,83.92
2019-03-27T13:51:02.856Z,84.01
2019-03-27T13:53:31.360Z,83.90
2019-03-27T13:56:03.804Z,84.35
2019-03-27T13:58:34.234Z,84.11
2019-03-27T14:01:08.908Z,84.54
2019-03-27T14:03:37.602Z,84.58
2019-03-27T14:06:06.147Z,84.91
2019-03-27T14:08:34.730Z,85.30
2019-03-27T14:11:06.454Z,85.40
2019-03-27T14:13:34.950Z,85.09
2019-03-27T14:16:03.564Z,85.56
2019-03-27T14:18:32.061Z,85.63
2019-03-27T14:21:01.831Z,86.08
2019-03-27T14:23:31.984Z,86.02
2019-03-27T14:26:00.648Z,85.86
2019-03-27T14:28:29.239Z,85.79
2019-03-27T14:30:58.698Z,86.15
2019-03-27T14:33:27.326Z,86.14
2019-03-27T14:35:55.862Z,85.80
2019-03-27T14:38:24.485Z,86.00
2019-03-27T14:40:53.115Z,85.89
2019-03-27T14:43:21.660Z,85.91
2019-03-27T14:45:50.570Z,86.09
2019-03-27T14:48:19.130Z,86.03
2019-03-27T14:50:47.603Z,86.04
2019-03-27T14:53:16.196Z,86.00
2019-03-27T14:55:44.632Z,86.05
2019-03-27T14:58:13.080Z,85.92
2019-03-27T15:00:41.703Z,85.96
2019-03-27T15:03:10.238Z,86.09
2019-03-27T15:05:38.768Z,86.12
2019-03-27T15:08:07.343Z,86.28
2019-03-27T15:10:35.908Z,86.03
2019-03-27T15:13:04.597Z,85.64
2019-03-27T15:15:33.179Z,85.83
2019-03-27T15:18:01.833Z,85.90
2019-03-27T15:20:30.328Z,85.69
2019-03-27T15:22:58.800Z,85.67
2019-03-27T15:25:27.446Z,86.12
2019-03-27T15:27:56.032Z,86.16
2019-03-27T15:30:24.653Z,86.05
2019-03-27T15:32:53.276Z,86.27
2019-03-27T15:35:21.870Z,86.14
2019-03-27T15:37:50.865Z,86.22
2019-03-27T15:40:31.569Z,86.00
2019-03-27T15:43:00.122Z,85.85
2019-03-27T15:45:28.666Z,86.18
2019-03-27T15:47:57.221Z,86.03
2019-03-27T15:50:25.914Z,86.16
2019-03-27T15:52:54.464Z,85.83
2019-03-27T15:55:25.806Z,85.71
2019-03-27T15:57:54.470Z,85.88
2019-03-27T16:00:23.206Z,86.32
2019-03-27T16:02:51.760Z,86.07
2019-03-27T16:05:20.500Z,86.26
2019-03-27T16:07:49.065Z,86.37
2019-03-27T16:10:18.526Z,86.55
2019-03-27T16:12:48.558Z,86.37
2019-03-27T16:15:17.580Z,86.37
2019-03-27T16:17:49.216Z,86.58
2019-03-27T16:20:20.170Z,86.82
2019-03-27T16:22:51.139Z,86.89
2019-03-27T16:25:23.044Z,86.84
2019-03-27T16:27:51.519Z,86.81
2019-03-27T16:30:20.218Z,86.78
2019-03-27T16:32:48.679Z,87.08
2019-03-27T16:35:17.380Z,86.98
2019-03-27T16:37:47.605Z,87.15
2019-03-27T16:40:17.675Z,87.04
2019-03-27T16:42:46.179Z,87.19
2019-03-27T16:45:15.013Z,87.14
2019-03-27T16:47:43.730Z,87.10
2019-03-27T16:50:13.073Z,87.17
2019-03-27T16:52:41.532Z,87.06
2019-03-27T16:55:10.535Z,86.77
2019-03-27T16:57:39.028Z,86.86
2019-03-27T17:00:08.851Z,86.96
2019-03-27T17:02:40.060Z,86.96
2019-03-27T17:05:08.744Z,86.96
2019-03-27T17:07:37.228Z,86.78
2019-03-27T17:10:09.144Z,86.93
2019-03-27T17:12:38.228Z,87.00
2019-03-27T17:15:07.354Z,87.15
2019-03-27T17:17:35.889Z,87.14
2019-03-27T17:20:10.604Z,87.45
2019-03-27T17:22:38.340Z,87.51
2019-03-27T17:25:08.252Z,87.77
2019-03-27T17:27:37.391Z,87.56
2019-03-27T17:30:08.930Z,87.55
2019-03-27T17:32:37.473Z,87.48
2019-03-27T17:38:37.949Z,87.27
2019-03-27T17:41:06.534Z,87.36
2019-03-27T17:43:35.427Z,87.46
2019-03-27T17:46:06.975Z,87.56
2019-03-27T17:48:35.461Z,87.44
2019-03-27T17:51:04.418Z,87.37
2019-03-27T17:53:32.915Z,87.60
2019-03-27T17:56:01.391Z,87.49
2019-03-27T17:58:29.971Z,87.57
2019-03-27T18:00:58.701Z,87.39
2019-03-27T18:03:28.822Z,87.54
2019-03-27T18:05:57.357Z,87.47
2019-03-27T18:11:22.576Z,87.62
2019-03-27T18:13:51.075Z,87.83
2019-03-27T18:16:19.937Z,87.84
2019-03-27T18:18:48.540Z,87.79
2019-03-27T18:21:17.082Z,87.92
2019-03-27T18:23:47.134Z,87.97
2019-03-27T18:26:15.747Z,88.14
2019-03-27T18:28:44.260Z,88.09
2019-03-27T18:31:13.079Z,88.25
2019-03-27T18:33:41.557Z,88.28
2019-03-27T18:36:10.197Z,88.12
2019-03-27T18:38:42.007Z,88.11
2019-03-27T18:41:10.548Z,88.19
2019-03-27T18:43:39.105Z,88.23
2019-03-27T18:46:07.597Z,88.15
2019-03-27T18:48:36.075Z,88.06
2019-03-27T18:51:04.756Z,87.95
2019-03-27T18:53:33.338Z,87.91
2019-03-27T18:56:01.814Z,87.92
2019-03-27T18:58:30.368Z,88.04
2019-03-27T19:00:58.920Z,87.92
2019-03-27T19:03:27.570Z,88.07
2019-03-27T19:05:56.195Z,87.81
2019-03-27T19:08:24.747Z,87.75
2019-03-27T19:10:53.424Z,87.75
2019-03-27T19:13:22.072Z,87.77
2019-03-27T19:15:52.145Z,87.73
2019-03-27T19:18:26.788Z,87.62
2019-03-27T19:20:51.325Z,87.46
2019-03-27T19:23:22.561Z,87.54
2019-03-27T19:25:51.156Z,87.55
2019-03-27T19:28:21.705Z,87.40
2019-03-27T19:30:50.316Z,87.42
2019-03-27T19:33:18.811Z,87.39
2019-03-27T19:35:47.325Z,87.15
2019-03-27T19:38:15.951Z,87.06
2019-03-27T19:40:44.546Z,87.19
2019-03-27T19:43:13.032Z,87.14
2019-03-27T19:45:41.654Z,87.06
2019-03-27T19:48:13.306Z,86.89
2019-03-27T19:50:41.802Z,87.15
2019-03-27T19:53:10.361Z,87.38
2019-03-27T19:55:40.060Z,87.25
2019-03-27T19:58:10.148Z,87.17
2019-03-27T20:00:39.332Z,87.07
2019-03-27T20:03:07.985Z,86.94
2019-03-27T20:05:36.459Z,86.93
2019-03-27T20:08:05.277Z,86.82
2019-03-27T20:10:36.137Z,86.75
2019-03-27T20:13:04.784Z,86.79
2019-03-27T20:15:33.409Z,86.68
2019-03-27T20:18:06.793Z,86.70
2019-03-27T20:20:35.819Z,86.62
2019-03-27T20:23:14.907Z,86.51
2019-03-27T20:25:36.148Z,86.56
2019-03-27T20:28:04.798Z,86.48
2019-03-27T20:30:33.396Z,86.50
2019-03-27T20:33:02.030Z,86.37
2019-03-27T20:35:31.563Z,86.30
2019-03-27T20:38:00.281Z,86.27
2019-03-27T20:40:30.757Z,86.17
2019-03-27T20:43:02.133Z,86.28
2019-03-27T20:45:30.628Z,86.39
2019-03-27T20:47:59.109Z,86.35
2019-03-27T20:50:27.704Z,86.48
2019-03-27T20:52:56.224Z,86.58
2019-03-27T20:55:30.446Z,86.42
2019-03-27T20:57:55.152Z,86.30
2019-03-27T21:00:23.898Z,86.29
2019-03-27T21:02:52.475Z,86.22
2019-03-27T21:05:21.168Z,86.28
2019-03-27T21:07:49.713Z,86.36
2019-03-27T21:10:21.040Z,86.43
2019-03-27T21:12:53.797Z,86.30
2019-03-27T21:15:22.037Z,86.39
2019-03-27T21:17:50.615Z,86.42
2019-03-27T21:20:19.278Z,86.41
2019-03-27T21:22:48.013Z,86.34
2019-03-27T21:25:16.940Z,86.38
2019-03-27T21:27:47.998Z,86.38
2019-03-27T21:30:17.012Z,86.31
2019-03-27T21:32:50.593Z,86.47
2019-03-27T21:35:19.347Z,86.65
2019-03-27T21:37:48.559Z,86.60
2019-03-27T21:40:18.815Z,86.48
2019-03-27T21:42:48.629Z,86.54
2019-03-27T21:45:17.956Z,86.64
2019-03-27T21:47:46.465Z,86.59
2019-03-27T21:50:15.194Z,86.50
2019-03-27T21:52:44.551Z,86.41
2019-03-27T21:55:22.420Z,86.38
2019-03-27T21:57:46.080Z,86.46
2019-03-27T22:00:37.754Z,86.30
2019-03-27T22:03:12.422Z,86.58
2019-03-27T22:05:40.267Z,86.50
2019-03-27T22:08:09.258Z,86.73
2019-03-27T22:10:39.395Z,86.67
2019-03-27T22:13:07.882Z,86.52
2019-03-27T22:15:36.612Z,86.41
2019-03-27T22:18:06.397Z,86.53
2019-03-27T22:20:35.032Z,86.65
2019-03-27T22:23:03.627Z,86.64
2019-03-27T22:25:36.302Z,86.55
2019-03-27T22:28:04.547Z,86.61
2019-03-27T22:30:33.059Z,86.37
2019-03-27T22:33:02.821Z,86.48
2019-03-27T22:35:31.345Z,86.36
2019-03-27T22:38:00.307Z,86.32
2019-03-27T22:40:28.873Z,86.45
2019-03-27T22:42:57.641Z,86.44
2019-03-27T22:45:30.952Z,86.33
2019-03-27T22:47:59.496Z,86.35
2019-03-27T22:50:52.094Z,86.38
2019-03-27T22:53:20.955Z,86.55
2019-03-27T22:55:50.668Z,86.59
2019-03-27T22:58:20.717Z,86.66
2019-03-27T23:00:53.239Z,86.62
2019-03-27T23:03:23.660Z,86.58
2019-03-27T23:05:52.319Z,86.66
2019-03-27T23:08:20.993Z,86.71
2019-03-27T23:10:52.112Z,86.61
2019-03-27T23:13:20.630Z,86.51
2019-03-27T23:15:51.607Z,86.61
2019-03-27T23:18:20.099Z,86.43
2019-03-27T23:20:50.271Z,86.37
2019-03-27T23:23:20.866Z,86.30
2019-03-27T23:26:02.462Z,86.26
2019-03-27T23:28:20.860Z,86.37
2019-03-27T23:30:49.362Z,86.29
2019-03-27T23:33:20.293Z,86.25
2019-03-27T23:35:48.313Z,86.30
2019-03-27T23:38:20.389Z,86.39
2019-03-27T23:40:48.907Z,86.42
2019-03-27T23:43:17.398Z,86.18
2019-03-27T23:45:45.975Z,86.07
2019-03-27T23:51:08.661Z,86.07
2019-03-27T23:53:37.249Z,85.88
2019-03-27T23:56:15.811Z,85.87
2019-03-27T23:58:36.164Z,85.90
